sensor_id;sensor_type;location;lat;lon;timestamp;pressure;altitude;pressure_sealevel;temperature;humidity
21902;BME280;11115;46.038;14.612;2024-03-25T00:00:20;97581.53;;;3.80;100.00
21902;BME280;11115;46.038;14.612;2024-03-25T00:02:51;97572.69;;;3.59;100.00
21902;BME280;11115;46.038;14.612;2024-03-25T00:05:17;97573.09;;;3.47;100.00
21902;BME280;11115;46.038;14.612;2024-03-25T00:07:54;97574.72;;;3.48;100.00
21902;BME280;11115;46.038;14.612;2024-03-25T00:10:19;97530.72;;;3.05;100.00
21902;BME280;11115;46.038;14.612;2024-03-25T00:12:51;97584.66;;;2.85;100.00
21902;BME280;11115;46.038;14.612;2024-03-25T00:15:21;97581.88;;;2.95;100.00
21902;BME280;11115;46.038;14.612;2024-03-25T00:17:51;97572.66;;;2.81;100.00
21902;BME280;11115;46.038;14.612;2024-03-25T00:20:18;97569.19;;;2.70;100.00
21902;BME280;11115;46.038;14.612;2024-03-25T00:22:54;97583.81;;;2.94;100.00
21902;BME280;11115;46.038;14.612;2024-03-25T00:25:22;97579.25;;;2.69;100.00
21902;BME280;11115;46.038;14.612;2024-03-25T00:27:53;97558.75;;;2.77;100.00
21902;BME280;11115;46.038;14.612;2024-03-25T00:30:20;97576.94;;;2.97;100.00
21902;BME280;11115;46.038;14.612;2024-03-25T00:33:02;97584.44;;;2.76;100.00
21902;BME280;11115;46.038;14.612;2024-03-25T00:35:31;97578.91;;;2.91;100.00
21902;BME280;11115;46.038;14.612;2024-03-25T00:38:00;97582.38;;;3.02;100.00
21902;BME280;11115;46.038;14.612;2024-03-25T00:40:27;97585.22;;;3.26;100.00
21902;BME280;11115;46.038;14.612;2024-03-25T00:43:00;97560.06;;;2.90;100.00
21902;BME280;11115;46.038;14.612;2024-03-25T00:45:26;97582.34;;;3.07;100.00
21902;BME280;11115;46.038;14.612;2024-03-25T00:47:59;97578.00;;;3.01;100.00
21902;BME280;11115;46.038;14.612;2024-03-25T00:50:27;97574.75;;;2.99;100.00
21902;BME280;11115;46.038;14.612;2024-03-25T00:52:57;97568.22;;;2.95;100.00
21902;BME280;11115;46.038;14.612;2024-03-25T00:55:28;97578.38;;;2.89;100.00
21902;BME280;11115;46.038;14.612;2024-03-25T00:58:08;97555.09;;;2.97;100.00
21902;BME280;11115;46.038;14.612;2024-03-25T01:00:36;97575.25;;;3.06;100.00
21902;BME280;11115;46.038;14.612;2024-03-25T01:03:08;97578.88;;;2.96;100.00
21902;BME280;11115;46.038;14.612;2024-03-25T01:05:36;97577.38;;;2.70;100.00
21902;BME280;11115;46.038;14.612;2024-03-25T01:08:04;97578.13;;;2.81;100.00
21902;BME280;11115;46.038;14.612;2024-03-25T01:10:37;97578.38;;;2.84;100.00
21902;BME280;11115;46.038;14.612;2024-03-25T01:13:07;97573.56;;;2.61;100.00
21902;BME280;11115;46.038;14.612;2024-03-25T01:15:36;97564.41;;;2.36;100.00
21902;BME280;11115;46.038;14.612;2024-03-25T01:18:03;97562.19;;;2.43;100.00
21902;BME280;11115;46.038;14.612;2024-03-25T01:20:32;97565.41;;;2.51;100.00
21902;BME280;11115;46.038;14.612;2024-03-25T01:23:14;97555.00;;;2.63;100.00
21902;BME280;11115;46.038;14.612;2024-03-25T01:25:48;97564.81;;;2.64;100.00
21902;BME280;11115;46.038;14.612;2024-03-25T01:28:19;97567.59;;;2.54;100.00
21902;BME280;11115;46.038;14.612;2024-03-25T01:30:55;97559.69;;;2.52;100.00
21902;BME280;11115;46.038;14.612;2024-03-25T01:33:24;97567.88;;;2.57;100.00
21902;BME280;11115;46.038;14.612;2024-03-25T01:35:54;97565.97;;;2.53;100.00
21902;BME280;11115;46.038;14.612;2024-03-25T01:38:22;97565.69;;;2.49;100.00
21902;BME280;11115;46.038;14.612;2024-03-25T01:40:53;97551.03;;;2.35;100.00
21902;BME280;11115;46.038;14.612;2024-03-25T01:43:26;97561.16;;;2.19;100.00
21902;BME280;11115;46.038;14.612;2024-03-25T01:45:56;97564.47;;;2.16;100.00
21902;BME280;11115;46.038;14.612;2024-03-25T01:48:31;97572.63;;;2.11;100.00
21902;BME280;11115;46.038;14.612;2024-03-25T01:51:02;97564.75;;;1.99;100.00
21902;BME280;11115;46.038;14.612;2024-03-25T01:53:32;97553.84;;;1.99;100.00
21902;BME280;11115;46.038;14.612;2024-03-25T01:56:02;97573.44;;;2.11;100.00
21902;BME280;11115;46.038;14.612;2024-03-25T01:58:33;97579.75;;;2.07;100.00
21902;BME280;11115;46.038;14.612;2024-03-25T02:01:07;97587.91;;;2.17;100.00
21902;BME280;11115;46.038;14.612;2024-03-25T02:03:42;97535.56;;;2.00;100.00
21902;BME280;11115;46.038;14.612;2024-03-25T02:06:17;97579.69;;;2.27;100.00
21902;BME280;11115;46.038;14.612;2024-03-25T02:08:44;97575.03;;;2.38;100.00
21902;BME280;11115;46.038;14.612;2024-03-25T02:11:16;97568.78;;;2.32;100.00
21902;BME280;11115;46.038;14.612;2024-03-25T02:13:46;97578.63;;;2.18;100.00
21902;BME280;11115;46.038;14.612;2024-03-25T02:16:27;97577.63;;;1.78;100.00
21902;BME280;11115;46.038;14.612;2024-03-25T02:18:55;97553.06;;;1.83;100.00
21902;BME280;11115;46.038;14.612;2024-03-25T02:21:25;97568.56;;;2.03;100.00
21902;BME280;11115;46.038;14.612;2024-03-25T02:23:55;97543.75;;;2.05;100.00
21902;BME280;11115;46.038;14.612;2024-03-25T02:26:28;97558.97;;;2.21;100.00
21902;BME280;11115;46.038;14.612;2024-03-25T02:28:56;97553.47;;;2.36;100.00
21902;BME280;11115;46.038;14.612;2024-03-25T02:31:27;97568.44;;;2.44;100.00
21902;BME280;11115;46.038;14.612;2024-03-25T02:33:56;97564.88;;;2.49;100.00
21902;BME280;11115;46.038;14.612;2024-03-25T02:36:24;97564.63;;;2.45;100.00
21902;BME280;11115;46.038;14.612;2024-03-25T02:38:53;97562.22;;;2.33;100.00
21902;BME280;11115;46.038;14.612;2024-03-25T02:41:21;97571.22;;;2.34;100.00
21902;BME280;11115;46.038;14.612;2024-03-25T02:43:49;97571.22;;;2.29;100.00
21902;BME280;11115;46.038;14.612;2024-03-25T02:46:21;97579.44;;;2.24;100.00
21902;BME280;11115;46.038;14.612;2024-03-25T02:48:49;97581.88;;;2.25;100.00
21902;BME280;11115;46.038;14.612;2024-03-25T02:51:22;97582.47;;;2.17;100.00
21902;BME280;11115;46.038;14.612;2024-03-25T02:53:50;97588.19;;;2.16;100.00
21902;BME280;11115;46.038;14.612;2024-03-25T02:56:24;97589.84;;;2.06;100.00
21902;BME280;11115;46.038;14.612;2024-03-25T02:58:54;97583.31;;;1.92;100.00
21902;BME280;11115;46.038;14.612;2024-03-25T03:01:32;97580.06;;;1.85;100.00
21902;BME280;11115;46.038;14.612;2024-03-25T03:03:58;97582.72;;;2.10;100.00
21902;BME280;11115;46.038;14.612;2024-03-25T03:06:31;97572.97;;;1.94;100.00
21902;BME280;11115;46.038;14.612;2024-03-25T03:09:01;97584.41;;;1.96;100.00
21902;BME280;11115;46.038;14.612;2024-03-25T03:11:30;97585.50;;;1.90;100.00
21902;BME280;11115;46.038;14.612;2024-03-25T03:14:00;97584.91;;;2.08;100.00
21902;BME280;11115;46.038;14.612;2024-03-25T03:16:44;97580.34;;;1.83;100.00
21902;BME280;11115;46.038;14.612;2024-03-25T03:19:18;97590.13;;;1.90;100.00
21902;BME280;11115;46.038;14.612;2024-03-25T03:21:48;97589.06;;;1.70;100.00
21902;BME280;11115;46.038;14.612;2024-03-25T03:24:24;97554.44;;;1.71;100.00
21902;BME280;11115;46.038;14.612;2024-03-25T03:26:50;97585.22;;;1.97;100.00
21902;BME280;11115;46.038;14.612;2024-03-25T03:29:23;97592.03;;;1.89;100.00
21902;BME280;11115;46.038;14.612;2024-03-25T03:31:51;97596.41;;;1.70;100.00
21902;BME280;11115;46.038;14.612;2024-03-25T03:34:18;97592.06;;;1.84;100.00
21902;BME280;11115;46.038;14.612;2024-03-25T03:36:48;97595.06;;;1.82;100.00
21902;BME280;11115;46.038;14.612;2024-03-25T03:39:17;97579.25;;;1.69;100.00
21902;BME280;11115;46.038;14.612;2024-03-25T03:41:47;97592.06;;;1.69;100.00
21902;BME280;11115;46.038;14.612;2024-03-25T03:44:19;97594.53;;;1.65;100.00
21902;BME280;11115;46.038;14.612;2024-03-25T03:46:48;97593.44;;;1.61;100.00
21902;BME280;11115;46.038;14.612;2024-03-25T03:49:18;97592.34;;;1.42;100.00
21902;BME280;11115;46.038;14.612;2024-03-25T03:51:50;97585.78;;;1.17;100.00
21902;BME280;11115;46.038;14.612;2024-03-25T03:54:27;97590.16;;;1.59;100.00
21902;BME280;11115;46.038;14.612;2024-03-25T03:56:59;97537.53;;;1.13;100.00
21902;BME280;11115;46.038;14.612;2024-03-25T03:59:31;97602.16;;;1.38;100.00
21902;BME280;11115;46.038;14.612;2024-03-25T04:01:59;97604.03;;;1.32;100.00
21902;BME280;11115;46.038;14.612;2024-03-25T04:04:29;97607.06;;;1.46;100.00
21902;BME280;11115;46.038;14.612;2024-03-25T04:06:57;97607.34;;;1.44;100.00
21902;BME280;11115;46.038;14.612;2024-03-25T04:09:31;97587.69;;;1.22;100.00
21902;BME280;11115;46.038;14.612;2024-03-25T04:12:00;97611.38;;;1.32;100.00
21902;BME280;11115;46.038;14.612;2024-03-25T04:14:31;97614.66;;;1.34;100.00
21902;BME280;11115;46.038;14.612;2024-03-25T04:17:01;97610.88;;;1.45;100.00
21902;BME280;11115;46.038;14.612;2024-03-25T04:19:32;97619.88;;;1.61;100.00
21902;BME280;11115;46.038;14.612;2024-03-25T04:21:58;97629.16;;;1.60;100.00
21902;BME280;11115;46.038;14.612;2024-03-25T04:24:26;97626.16;;;1.56;100.00
21902;BME280;11115;46.038;14.612;2024-03-25T04:26:54;97636.50;;;1.69;100.00
21902;BME280;11115;46.038;14.612;2024-03-25T04:29:27;97622.88;;;1.69;100.00
21902;BME280;11115;46.038;14.612;2024-03-25T04:32:00;97639.50;;;1.73;100.00
21902;BME280;11115;46.038;14.612;2024-03-25T04:34:29;97615.25;;;1.56;100.00
21902;BME280;11115;46.038;14.612;2024-03-25T04:36:57;97653.16;;;1.78;100.00
21902;BME280;11115;46.038;14.612;2024-03-25T04:39:33;97649.06;;;1.75;100.00
21902;BME280;11115;46.038;14.612;2024-03-25T04:42:03;97652.03;;;1.89;100.00
21902;BME280;11115;46.038;14.612;2024-03-25T04:44:31;97653.69;;;1.95;100.00
21902;BME280;11115;46.038;14.612;2024-03-25T04:47:00;97648.53;;;1.94;100.00
21902;BME280;11115;46.038;14.612;2024-03-25T04:49:33;97649.31;;;1.89;100.00
21902;BME280;11115;46.038;14.612;2024-03-25T04:52:03;97626.41;;;1.85;100.00
21902;BME280;11115;46.038;14.612;2024-03-25T04:54:35;97649.59;;;2.03;100.00
21902;BME280;11115;46.038;14.612;2024-03-25T04:57:01;97655.06;;;2.03;100.00
21902;BME280;11115;46.038;14.612;2024-03-25T04:59:31;97653.66;;;2.10;100.00
21902;BME280;11115;46.038;14.612;2024-03-25T05:02:00;97659.13;;;2.16;100.00
21902;BME280;11115;46.038;14.612;2024-03-25T05:04:27;97661.88;;;2.05;100.00
21902;BME280;11115;46.038;14.612;2024-03-25T05:06:54;97674.94;;;2.08;100.00
21902;BME280;11115;46.038;14.612;2024-03-25T05:09:22;97677.16;;;2.17;100.00
21902;BME280;11115;46.038;14.612;2024-03-25T05:11:49;97669.22;;;2.05;100.00
21902;BME280;11115;46.038;14.612;2024-03-25T05:14:16;97680.97;;;1.75;100.00
21902;BME280;11115;46.038;14.612;2024-03-25T05:16:48;97679.59;;;2.08;100.00
21902;BME280;11115;46.038;14.612;2024-03-25T05:19:16;97661.56;;;2.12;100.00
21902;BME280;11115;46.038;14.612;2024-03-25T05:21:44;97680.94;;;2.41;100.00
21902;BME280;11115;46.038;14.612;2024-03-25T05:24:12;97682.25;;;2.49;100.00
21902;BME280;11115;46.038;14.612;2024-03-25T05:26:39;97693.19;;;2.43;100.00
21902;BME280;11115;46.038;14.612;2024-03-25T05:29:06;97693.25;;;2.33;100.00
21902;BME280;11115;46.038;14.612;2024-03-25T05:31:35;97691.03;;;2.35;100.00
21902;BME280;11115;46.038;14.612;2024-03-25T05:34:01;97696.22;;;2.27;100.00
21902;BME280;11115;46.038;14.612;2024-03-25T05:36:30;97707.97;;;2.37;100.00
21902;BME280;11115;46.038;14.612;2024-03-25T05:38:59;97709.56;;;2.49;100.00
21902;BME280;11115;46.038;14.612;2024-03-25T05:41:26;97715.03;;;2.54;100.00
21902;BME280;11115;46.038;14.612;2024-03-25T05:43:57;97716.41;;;2.41;100.00
21902;BME280;11115;46.038;14.612;2024-03-25T05:46:26;97716.09;;;2.63;100.00
21902;BME280;11115;46.038;14.612;2024-03-25T05:49:00;97680.06;;;2.51;100.00
21902;BME280;11115;46.038;14.612;2024-03-25T05:51:27;97713.91;;;2.70;100.00
21902;BME280;11115;46.038;14.612;2024-03-25T05:53:56;97716.66;;;2.70;100.00
21902;BME280;11115;46.038;14.612;2024-03-25T05:56:26;97703.00;;;2.70;100.00
21902;BME280;11115;46.038;14.612;2024-03-25T05:59:01;97719.31;;;2.85;100.00
21902;BME280;11115;46.038;14.612;2024-03-25T06:01:30;97719.41;;;2.55;100.00
21902;BME280;11115;46.038;14.612;2024-03-25T06:04:08;97727.25;;;2.82;100.00
21902;BME280;11115;46.038;14.612;2024-03-25T06:06:39;97722.31;;;2.94;100.00
21902;BME280;11115;46.038;14.612;2024-03-25T06:09:11;97715.19;;;2.98;100.00
21902;BME280;11115;46.038;14.612;2024-03-25T06:11:41;97720.28;;;3.25;100.00
21902;BME280;11115;46.038;14.612;2024-03-25T06:14:09;97724.16;;;3.14;100.00
21902;BME280;11115;46.038;14.612;2024-03-25T06:16:38;97731.50;;;3.18;100.00
21902;BME280;11115;46.038;14.612;2024-03-25T06:19:08;97718.28;;;2.76;100.00
21902;BME280;11115;46.038;14.612;2024-03-25T06:21:36;97738.38;;;3.05;100.00
21902;BME280;11115;46.038;14.612;2024-03-25T06:24:05;97733.16;;;3.19;100.00
21902;BME280;11115;46.038;14.612;2024-03-25T06:26:35;97709.91;;;3.22;100.00
21902;BME280;11115;46.038;14.612;2024-03-25T06:29:07;97731.13;;;3.40;100.00
21902;BME280;11115;46.038;14.612;2024-03-25T06:31:37;97729.28;;;3.25;100.00
21902;BME280;11115;46.038;14.612;2024-03-25T06:34:25;97741.56;;;3.33;100.00
21902;BME280;11115;46.038;14.612;2024-03-25T06:36:51;97734.44;;;3.37;100.00
21902;BME280;11115;46.038;14.612;2024-03-25T06:39:23;97736.59;;;3.40;100.00
21902;BME280;11115;46.038;14.612;2024-03-25T06:41:49;97737.44;;;3.35;100.00
21902;BME280;11115;46.038;14.612;2024-03-25T06:44:19;97722.53;;;3.13;100.00
21902;BME280;11115;46.038;14.612;2024-03-25T06:46:48;97731.97;;;3.41;100.00
21902;BME280;11115;46.038;14.612;2024-03-25T06:49:16;97723.88;;;3.15;100.00
21902;BME280;11115;46.038;14.612;2024-03-25T06:51:49;97731.22;;;3.20;100.00
21902;BME280;11115;46.038;14.612;2024-03-25T06:54:17;97704.44;;;3.22;100.00
21902;BME280;11115;46.038;14.612;2024-03-25T06:56:44;97730.56;;;3.43;100.00
21902;BME280;11115;46.038;14.612;2024-03-25T06:59:10;97738.41;;;3.60;100.00
21902;BME280;11115;46.038;14.612;2024-03-25T07:01:39;97741.94;;;3.65;100.00
21902;BME280;11115;46.038;14.612;2024-03-25T07:04:10;97745.47;;;3.66;100.00
21902;BME280;11115;46.038;14.612;2024-03-25T07:06:36;97742.53;;;3.57;100.00
21902;BME280;11115;46.038;14.612;2024-03-25T07:09:03;97747.31;;;3.86;100.00
21902;BME280;11115;46.038;14.612;2024-03-25T07:11:30;97728.81;;;3.68;100.00
21902;BME280;11115;46.038;14.612;2024-03-25T07:14:02;97751.13;;;3.90;100.00
21902;BME280;11115;46.038;14.612;2024-03-25T07:16:31;97758.94;;;4.07;100.00
21902;BME280;11115;46.038;14.612;2024-03-25T07:18:59;97759.59;;;3.88;100.00
21902;BME280;11115;46.038;14.612;2024-03-25T07:21:27;97771.00;;;4.06;100.00
21902;BME280;11115;46.038;14.612;2024-03-25T07:23:53;97771.19;;;4.14;100.00
21902;BME280;11115;46.038;14.612;2024-03-25T07:26:20;97770.63;;;4.17;100.00
21902;BME280;11115;46.038;14.612;2024-03-25T07:28:48;97768.97;;;4.16;100.00
21902;BME280;11115;46.038;14.612;2024-03-25T07:31:19;97774.81;;;4.44;100.00
21902;BME280;11115;46.038;14.612;2024-03-25T07:33:46;97776.22;;;4.36;100.00
21902;BME280;11115;46.038;14.612;2024-03-25T07:36:13;97775.75;;;4.29;100.00
21902;BME280;11115;46.038;14.612;2024-03-25T07:38:41;97779.13;;;4.50;100.00
21902;BME280;11115;46.038;14.612;2024-03-25T07:41:10;97756.69;;;4.48;100.00
21902;BME280;11115;46.038;14.612;2024-03-25T07:43:39;97778.53;;;4.87;100.00
21902;BME280;11115;46.038;14.612;2024-03-25T07:46:08;97779.72;;;4.76;100.00
21902;BME280;11115;46.038;14.612;2024-03-25T07:48:35;97763.28;;;4.76;100.00
21902;BME280;11115;46.038;14.612;2024-03-25T07:51:06;97773.84;;;4.58;100.00
21902;BME280;11115;46.038;14.612;2024-03-25T07:53:32;97760.16;;;4.87;100.00
21902;BME280;11115;46.038;14.612;2024-03-25T07:56:10;97769.56;;;5.05;100.00
21902;BME280;11115;46.038;14.612;2024-03-25T07:58:39;97766.41;;;5.17;100.00
21902;BME280;11115;46.038;14.612;2024-03-25T08:01:08;97764.25;;;5.14;100.00
21902;BME280;11115;46.038;14.612;2024-03-25T08:03:36;97766.91;;;5.24;100.00
21902;BME280;11115;46.038;14.612;2024-03-25T08:06:04;97758.47;;;4.92;100.00
21902;BME280;11115;46.038;14.612;2024-03-25T08:08:39;97757.72;;;5.10;100.00
21902;BME280;11115;46.038;14.612;2024-03-25T08:11:08;97762.47;;;5.28;100.00
21902;BME280;11115;46.038;14.612;2024-03-25T08:13:36;97761.50;;;5.62;100.00
21902;BME280;11115;46.038;14.612;2024-03-25T08:16:07;97750.75;;;5.84;100.00
21902;BME280;11115;46.038;14.612;2024-03-25T08:18:35;97735.75;;;5.76;100.00
21902;BME280;11115;46.038;14.612;2024-03-25T08:21:06;97750.84;;;6.17;100.00
21902;BME280;11115;46.038;14.612;2024-03-25T08:23:34;97746.13;;;6.03;100.00
21902;BME280;11115;46.038;14.612;2024-03-25T08:26:00;97748.66;;;6.19;100.00
21902;BME280;11115;46.038;14.612;2024-03-25T08:28:30;97753.31;;;6.18;100.00
21902;BME280;11115;46.038;14.612;2024-03-25T08:31:01;97750.78;;;6.54;100.00
21902;BME280;11115;46.038;14.612;2024-03-25T08:33:32;97736.84;;;6.51;100.00
21902;BME280;11115;46.038;14.612;2024-03-25T08:36:01;97728.25;;;6.57;100.00
21902;BME280;11115;46.038;14.612;2024-03-25T08:38:30;97746.66;;;6.57;100.00
21902;BME280;11115;46.038;14.612;2024-03-25T08:40:58;97748.25;;;6.90;100.00
21902;BME280;11115;46.038;14.612;2024-03-25T08:43:27;97744.72;;;7.17;100.00
21902;BME280;11115;46.038;14.612;2024-03-25T08:45:59;97751.53;;;7.06;100.00
21902;BME280;11115;46.038;14.612;2024-03-25T08:48:29;97733.59;;;7.09;100.00
21902;BME280;11115;46.038;14.612;2024-03-25T08:51:00;97744.41;;;7.19;100.00
21902;BME280;11115;46.038;14.612;2024-03-25T08:53:32;97724.44;;;7.41;100.00
21902;BME280;11115;46.038;14.612;2024-03-25T08:55:58;97735.72;;;7.67;100.00
21902;BME280;11115;46.038;14.612;2024-03-25T08:58:26;97743.16;;;7.66;100.00
21902;BME280;11115;46.038;14.612;2024-03-25T09:00:53;97738.16;;;7.68;100.00
21902;BME280;11115;46.038;14.612;2024-03-25T09:03:21;97735.03;;;7.61;100.00
21902;BME280;11115;46.038;14.612;2024-03-25T09:05:48;97726.50;;;7.85;100.00
21902;BME280;11115;46.038;14.612;2024-03-25T09:08:14;97726.72;;;7.88;100.00
21902;BME280;11115;46.038;14.612;2024-03-25T09:10:50;97721.81;;;8.35;100.00
21902;BME280;11115;46.038;14.612;2024-03-25T09:13:30;97707.59;;;8.28;100.00
21902;BME280;11115;46.038;14.612;2024-03-25T09:16:13;97664.78;;;8.00;100.00
21902;BME280;11115;46.038;14.612;2024-03-25T09:18:40;97714.31;;;8.80;100.00
21902;BME280;11115;46.038;14.612;2024-03-25T09:21:09;97712.78;;;8.97;100.00
21902;BME280;11115;46.038;14.612;2024-03-25T09:23:37;97711.63;;;8.67;100.00
21902;BME280;11115;46.038;14.612;2024-03-25T09:26:04;97716.81;;;8.91;100.00
21902;BME280;11115;46.038;14.612;2024-03-25T09:28:37;97707.00;;;9.07;100.00
21902;BME280;11115;46.038;14.612;2024-03-25T09:31:06;97707.84;;;9.25;100.00
21902;BME280;11115;46.038;14.612;2024-03-25T09:33:33;97689.53;;;9.29;100.00
21902;BME280;11115;46.038;14.612;2024-03-25T09:36:01;97689.16;;;9.70;100.00
21902;BME280;11115;46.038;14.612;2024-03-25T09:38:33;97700.16;;;9.61;100.00
21902;BME280;11115;46.038;14.612;2024-03-25T09:40:59;97693.19;;;9.55;100.00
21902;BME280;11115;46.038;14.612;2024-03-25T09:43:43;97694.50;;;9.66;100.00
21902;BME280;11115;46.038;14.612;2024-03-25T09:46:18;97699.88;;;9.71;100.00
21902;BME280;11115;46.038;14.612;2024-03-25T09:48:44;97682.66;;;10.00;100.00
21902;BME280;11115;46.038;14.612;2024-03-25T09:51:13;97683.00;;;9.99;100.00
21902;BME280;11115;46.038;14.612;2024-03-25T09:53:43;97683.66;;;10.13;100.00
21902;BME280;11115;46.038;14.612;2024-03-25T09:56:13;97679.94;;;10.44;100.00
21902;BME280;11115;46.038;14.612;2024-03-25T09:58:44;97677.97;;;10.44;100.00
21902;BME280;11115;46.038;14.612;2024-03-25T10:01:12;97677.25;;;10.73;100.00
21902;BME280;11115;46.038;14.612;2024-03-25T10:03:42;97649.63;;;10.56;100.00
21902;BME280;11115;46.038;14.612;2024-03-25T10:06:16;97667.81;;;10.74;100.00
21902;BME280;11115;46.038;14.612;2024-03-25T10:08:45;97665.19;;;10.78;100.00
21902;BME280;11115;46.038;14.612;2024-03-25T10:11:11;97662.56;;;10.90;100.00
21902;BME280;11115;46.038;14.612;2024-03-25T10:13:42;97670.41;;;11.17;100.00
21902;BME280;11115;46.038;14.612;2024-03-25T10:16:18;97656.56;;;11.26;100.00
21902;BME280;11115;46.038;14.612;2024-03-25T10:18:45;97663.16;;;11.42;100.00
21902;BME280;11115;46.038;14.612;2024-03-25T10:21:12;97655.31;;;11.44;100.00
21902;BME280;11115;46.038;14.612;2024-03-25T10:23:45;97662.75;;;11.52;100.00
21902;BME280;11115;46.038;14.612;2024-03-25T10:26:29;97656.41;;;11.81;100.00
21902;BME280;11115;46.038;14.612;2024-03-25T10:29:02;97653.44;;;12.07;100.00
21902;BME280;11115;46.038;14.612;2024-03-25T10:31:33;97644.44;;;12.10;100.00
21902;BME280;11115;46.038;14.612;2024-03-25T10:34:00;97646.84;;;12.33;100.00
21902;BME280;11115;46.038;14.612;2024-03-25T10:36:30;97653.03;;;12.51;100.00
21902;BME280;11115;46.038;14.612;2024-03-25T10:39:01;97651.34;;;12.58;100.00
21902;BME280;11115;46.038;14.612;2024-03-25T10:41:37;97642.09;;;12.66;100.00
21902;BME280;11115;46.038;14.612;2024-03-25T10:44:06;97634.47;;;12.63;99.68
21902;BME280;11115;46.038;14.612;2024-03-25T10:46:35;97634.97;;;12.90;100.00
21902;BME280;11115;46.038;14.612;2024-03-25T10:49:27;97621.41;;;13.21;100.00
21902;BME280;11115;46.038;14.612;2024-03-25T10:52:03;97628.09;;;13.20;87.61
21902;BME280;11115;46.038;14.612;2024-03-25T10:54:46;97626.59;;;13.47;100.00
21902;BME280;11115;46.038;14.612;2024-03-25T10:57:16;97627.72;;;13.71;82.90
21902;BME280;11115;46.038;14.612;2024-03-25T10:59:45;97609.25;;;13.38;63.34
21902;BME280;11115;46.038;14.612;2024-03-25T11:02:13;97602.38;;;13.48;65.28
21902;BME280;11115;46.038;14.612;2024-03-25T11:04:43;97607.25;;;14.03;65.64
21902;BME280;11115;46.038;14.612;2024-03-25T11:07:16;97603.59;;;14.27;77.15
21902;BME280;11115;46.038;14.612;2024-03-25T11:10:02;97598.56;;;14.61;73.83
21902;BME280;11115;46.038;14.612;2024-03-25T11:12:45;97597.72;;;14.88;83.28
21902;BME280;11115;46.038;14.612;2024-03-25T11:15:20;97579.16;;;14.64;58.56
21902;BME280;11115;46.038;14.612;2024-03-25T11:17:53;97597.50;;;14.97;70.58
21902;BME280;11115;46.038;14.612;2024-03-25T11:20:20;97592.59;;;15.06;64.75
21902;BME280;11115;46.038;14.612;2024-03-25T11:22:51;97587.03;;;15.06;60.08
21902;BME280;11115;46.038;14.612;2024-03-25T11:25:22;97589.59;;;15.30;61.15
21902;BME280;11115;46.038;14.612;2024-03-25T11:27:49;97587.41;;;15.39;54.80
21902;BME280;11115;46.038;14.612;2024-03-25T11:30:17;97587.63;;;15.31;50.75
21902;BME280;11115;46.038;14.612;2024-03-25T11:32:46;97574.72;;;15.42;45.88
21902;BME280;11115;46.038;14.612;2024-03-25T11:35:16;97576.09;;;15.64;47.56
21902;BME280;11115;46.038;14.612;2024-03-25T11:37:52;97575.44;;;16.09;57.43
21902;BME280;11115;46.038;14.612;2024-03-25T11:40:18;97572.34;;;15.95;56.15
21902;BME280;11115;46.038;14.612;2024-03-25T11:42:47;97559.22;;;16.15;50.29
21902;BME280;11115;46.038;14.612;2024-03-25T11:45:34;97555.44;;;16.46;56.22
21902;BME280;11115;46.038;14.612;2024-03-25T11:48:00;97501.78;;;16.33;56.41
21902;BME280;11115;46.038;14.612;2024-03-25T11:50:26;97552.78;;;16.53;49.82
21902;BME280;11115;46.038;14.612;2024-03-25T11:52:59;97544.25;;;16.88;58.11
21902;BME280;11115;46.038;14.612;2024-03-25T11:55:26;97547.41;;;17.09;51.12
21902;BME280;11115;46.038;14.612;2024-03-25T11:57:57;97541.25;;;16.54;41.34
21902;BME280;11115;46.038;14.612;2024-03-25T12:00:26;97537.47;;;17.12;45.70
21902;BME280;11115;46.038;14.612;2024-03-25T12:02:53;97527.75;;;17.02;40.33
21902;BME280;11115;46.038;14.612;2024-03-25T12:05:21;97530.66;;;17.62;45.34
21902;BME280;11115;46.038;14.612;2024-03-25T12:07:47;97531.63;;;17.47;41.35
21902;BME280;11115;46.038;14.612;2024-03-25T12:10:17;97516.97;;;17.83;41.92
21902;BME280;11115;46.038;14.612;2024-03-25T12:13:02;97519.66;;;18.80;46.55
21902;BME280;11115;46.038;14.612;2024-03-25T12:15:31;97520.69;;;18.28;46.91
21902;BME280;11115;46.038;14.612;2024-03-25T12:17:57;97504.34;;;19.74;50.19
21902;BME280;11115;46.038;14.612;2024-03-25T12:20:25;97505.31;;;19.40;50.05
21902;BME280;11115;46.038;14.612;2024-03-25T12:22:56;97497.63;;;19.96;49.37
21902;BME280;11115;46.038;14.612;2024-03-25T12:25:25;97491.44;;;20.74;46.37
21902;BME280;11115;46.038;14.612;2024-03-25T12:27:52;97487.47;;;19.66;45.78
21902;BME280;11115;46.038;14.612;2024-03-25T12:30:20;97489.03;;;21.08;47.67
21902;BME280;11115;46.038;14.612;2024-03-25T12:32:50;97450.06;;;21.17;42.43
21902;BME280;11115;46.038;14.612;2024-03-25T12:35:18;97478.97;;;21.49;35.98
21902;BME280;11115;46.038;14.612;2024-03-25T12:37:49;97467.75;;;21.21;34.22
21902;BME280;11115;46.038;14.612;2024-03-25T12:40:26;97467.06;;;22.22;39.32
21902;BME280;11115;46.038;14.612;2024-03-25T12:42:59;97468.78;;;23.20;40.39
21902;BME280;11115;46.038;14.612;2024-03-25T12:45:33;97464.59;;;22.31;39.73
21902;BME280;11115;46.038;14.612;2024-03-25T12:48:03;97462.94;;;22.34;38.19
21902;BME280;11115;46.038;14.612;2024-03-25T12:50:30;97455.22;;;21.61;39.73
21902;BME280;11115;46.038;14.612;2024-03-25T12:52:58;97452.00;;;21.59;43.73
21902;BME280;11115;46.038;14.612;2024-03-25T12:55:25;97456.13;;;22.31;37.72
21902;BME280;11115;46.038;14.612;2024-03-25T12:57:55;97457.81;;;22.84;38.47
21902;BME280;11115;46.038;14.612;2024-03-25T13:00:26;97438.03;;;23.70;38.36
21902;BME280;11115;46.038;14.612;2024-03-25T13:03:00;97448.94;;;23.72;33.86
21902;BME280;11115;46.038;14.612;2024-03-25T13:05:27;97442.59;;;23.95;32.48